createdAt,value
2022-11-05T00:00:23.919Z,9.70
2022-11-05T00:01:24.122Z,9.75
2022-11-05T00:02:24.263Z,9.70
2022-11-05T00:03:24.475Z,9.82
2022-11-05T00:04:30.626Z,9.66
2022-11-05T00:05:26.697Z,9.76
2022-11-05T00:06:24.920Z,9.73
2022-11-05T00:07:25.067Z,9.79
2022-11-05T00:08:25.225Z,9.88
2022-11-05T00:09:25.982Z,9.75
2022-11-05T00:10:25.692Z,9.81
2022-11-05T00:11:26.477Z,9.78
2022-11-05T00:12:26.476Z,9.73
2022-11-05T00:13:26.124Z,9.81
2022-11-05T00:14:26.269Z,9.71
2022-11-05T00:15:26.465Z,9.81
2022-11-05T00:16:26.613Z,9.78
2022-11-05T00:17:26.756Z,9.71
2022-11-05T00:18:26.918Z,9.67
2022-11-05T00:19:27.087Z,9.68
2022-11-05T00:20:27.242Z,9.63
2022-11-05T00:21:28.417Z,9.64
2022-11-05T00:22:27.528Z,9.58
2022-11-05T00:23:28.696Z,9.57
2022-11-05T00:24:27.954Z,9.64
2022-11-05T00:25:28.121Z,9.56
2022-11-05T00:26:28.286Z,9.64
2022-11-05T00:27:28.473Z,9.64
2022-11-05T00:28:29.468Z,9.60
2022-11-05T00:29:29.853Z,9.56
2022-11-05T00:30:29.020Z,9.56
2022-11-05T00:31:29.191Z,9.50
2022-11-05T00:32:29.982Z,9.53
2022-11-05T00:33:30.509Z,9.48
2022-11-05T00:34:30.500Z,9.52
2022-11-05T00:35:29.901Z,9.57
2022-11-05T00:36:30.059Z,9.58
2022-11-05T00:37:30.222Z,9.42
2022-11-05T00:38:30.402Z,9.48
2022-11-05T00:39:30.586Z,9.48
2022-11-05T00:40:30.766Z,9.48
2022-11-05T00:41:30.919Z,9.45
2022-11-05T00:42:31.073Z,9.40
2022-11-05T00:43:31.255Z,9.45
2022-11-05T00:44:31.421Z,9.38
2022-11-05T00:45:31.575Z,9.39
2022-11-05T00:46:31.724Z,9.49
2022-11-05T00:47:31.884Z,9.39
2022-11-05T00:48:32.048Z,9.40
2022-11-05T00:49:32.214Z,9.35
2022-11-05T00:50:32.351Z,9.38
2022-11-05T00:51:32.519Z,9.35
2022-11-05T00:52:32.669Z,9.38
2022-11-05T00:53:32.841Z,9.34
2022-11-05T00:54:33.051Z,9.31
2022-11-05T00:55:33.211Z,9.30
2022-11-05T00:56:33.501Z,9.39
2022-11-05T00:57:33.537Z,9.32
2022-11-05T00:58:33.711Z,9.32
2022-11-05T00:59:33.864Z,9.35
2022-11-05T01:00:33.996Z,9.27
2022-11-05T01:01:34.287Z,9.30
2022-11-05T01:02:34.497Z,9.23
2022-11-05T01:03:34.479Z,9.20
2022-11-05T01:04:34.600Z,9.25
2022-11-05T01:05:34.730Z,9.16
2022-11-05T01:06:35.001Z,9.09
2022-11-05T01:07:34.968Z,9.12
2022-11-05T01:08:35.129Z,9.12
2022-11-05T01:09:35.993Z,9.06
2022-11-05T01:10:36.485Z,8.94
2022-11-05T01:11:35.735Z,8.90
2022-11-05T01:12:36.495Z,8.94
2022-11-05T01:13:36.079Z,8.84
2022-11-05T01:14:36.251Z,8.88
2022-11-05T01:15:36.992Z,8.90
2022-11-05T01:16:36.636Z,8.84
2022-11-05T01:17:36.830Z,8.78
2022-11-05T01:18:36.974Z,8.72
2022-11-05T01:19:37.176Z,8.71
2022-11-05T01:20:37.994Z,8.75
2022-11-05T01:21:37.494Z,8.68
2022-11-05T01:22:37.656Z,8.63
2022-11-05T01:23:38.497Z,8.63
2022-11-05T01:24:38.512Z,8.68
2022-11-05T01:25:38.137Z,8.58
2022-11-05T01:26:38.273Z,8.57
2022-11-05T01:27:38.991Z,8.54
2022-11-05T01:28:38.654Z,8.48
2022-11-05T01:29:38.835Z,8.50
2022-11-05T01:30:38.976Z,8.42
2022-11-05T01:31:39.228Z,8.33
2022-11-05T01:32:39.994Z,8.35
2022-11-05T01:33:39.485Z,8.28
2022-11-05T01:34:39.622Z,8.28
2022-11-05T01:35:39.748Z,8.22
2022-11-05T01:36:40.499Z,8.22
2022-11-05T01:37:40.014Z,8.14
2022-11-05T01:38:40.994Z,8.10
2022-11-05T01:39:40.390Z,8.14
2022-11-05T01:40:41.497Z,8.03
2022-11-05T01:41:41.497Z,8.14
2022-11-05T01:42:40.926Z,8.18
2022-11-05T01:43:41.076Z,8.14
2022-11-05T01:44:42.000Z,8.10
2022-11-05T01:45:41.411Z,8.08
2022-11-05T01:46:41.570Z,8.03
2022-11-05T01:47:41.754Z,7.97
2022-11-05T01:48:41.926Z,7.87
2022-11-05T01:49:42.064Z,7.90
2022-11-05T01:50:42.210Z,7.90
2022-11-05T01:51:42.373Z,7.79
2022-11-05T01:52:42.543Z,7.77
2022-11-05T01:53:42.716Z,7.66
2022-11-05T01:54:42.873Z,7.67
2022-11-05T01:55:43.079Z,7.63
2022-11-05T01:56:44.026Z,7.77
2022-11-05T01:57:43.421Z,7.69
2022-11-05T01:58:43.578Z,7.62
2022-11-05T01:59:43.730Z,7.53
2022-11-05T02:00:43.892Z,7.49
2022-11-05T02:01:44.195Z,7.66
2022-11-05T02:02:44.441Z,7.45
2022-11-05T02:03:44.511Z,7.44
2022-11-05T02:04:44.692Z,7.49
2022-11-05T02:05:44.822Z,7.49
2022-11-05T02:06:44.986Z,7.42
2022-11-05T02:07:45.117Z,7.47
2022-11-05T02:08:45.267Z,7.31
2022-11-05T02:09:45.389Z,7.34
2022-11-05T02:10:45.512Z,7.44
2022-11-05T02:11:45.690Z,7.34
2022-11-05T02:12:46.632Z,7.31
2022-11-05T02:13:46.505Z,7.20
2022-11-05T02:14:46.138Z,7.12
2022-11-05T02:15:47.010Z,7.16
2022-11-05T02:16:46.527Z,7.13
2022-11-05T02:17:46.702Z,7.12
2022-11-05T02:18:46.855Z,7.05
2022-11-05T02:19:47.037Z,7.09
2022-11-05T02:20:51.979Z,7.08
2022-11-05T02:21:48.432Z,7.07
2022-11-05T02:22:48.507Z,7.04
2022-11-05T02:23:47.881Z,7.07
2022-11-05T02:24:48.038Z,7.16
2022-11-05T02:25:48.183Z,7.04
2022-11-05T02:26:48.316Z,6.97
2022-11-05T02:27:48.547Z,6.98
2022-11-05T02:28:48.690Z,6.95
2022-11-05T02:29:48.826Z,6.87
2022-11-05T02:30:48.993Z,6.99
2022-11-05T02:31:49.143Z,7.01
2022-11-05T02:32:49.313Z,7.01
2022-11-05T02:33:49.448Z,7.04
2022-11-05T02:34:49.598Z,6.90
2022-11-05T02:35:49.763Z,6.99
2022-11-05T02:36:50.506Z,6.90
2022-11-05T02:37:50.136Z,6.98
2022-11-05T02:38:51.014Z,6.91
2022-11-05T02:39:50.506Z,6.83
2022-11-05T02:40:51.517Z,6.97
2022-11-05T02:41:50.789Z,6.87
2022-11-05T02:42:50.937Z,6.97
2022-11-05T02:43:51.055Z,6.95
2022-11-05T02:44:51.193Z,7.01
2022-11-05T02:45:51.336Z,6.90
2022-11-05T02:46:51.509Z,6.95
2022-11-05T02:47:51.644Z,7.05
2022-11-05T02:48:51.801Z,7.05
2022-11-05T02:49:51.941Z,7.08
2022-11-05T02:50:52.077Z,7.09
2022-11-05T02:51:53.018Z,7.12
2022-11-05T02:52:52.397Z,7.15
2022-11-05T02:53:52.563Z,7.12
2022-11-05T02:54:53.517Z,7.07
2022-11-05T02:55:52.943Z,7.15
2022-11-05T02:56:53.066Z,7.23
2022-11-05T02:57:53.269Z,7.26
2022-11-05T02:58:53.448Z,7.15
2022-11-05T02:59:53.612Z,7.23
2022-11-05T03:00:54.515Z,7.19
2022-11-05T03:01:53.981Z,7.24
2022-11-05T03:02:54.314Z,7.20
2022-11-05T03:03:54.301Z,7.20
2022-11-05T03:04:54.484Z,7.20
2022-11-05T03:05:54.684Z,7.23
2022-11-05T03:06:54.854Z,7.16
2022-11-05T03:07:55.055Z,7.24
2022-11-05T03:08:56.017Z,7.31
2022-11-05T03:09:55.419Z,7.27
2022-11-05T03:10:56.033Z,7.35
2022-11-05T03:11:55.801Z,7.37
2022-11-05T03:12:56.111Z,7.42
2022-11-05T03:13:56.114Z,7.35
2022-11-05T03:14:56.298Z,7.42
2022-11-05T03:15:56.536Z,7.49
2022-11-05T03:16:56.652Z,7.38
2022-11-05T03:17:56.782Z,7.44
2022-11-05T03:18:56.928Z,7.47
2022-11-05T03:19:57.057Z,7.52
2022-11-05T03:20:57.229Z,7.47
2022-11-05T03:21:57.378Z,7.63
2022-11-05T03:22:57.487Z,7.58
2022-11-05T03:23:58.615Z,7.71
2022-11-05T03:24:58.524Z,7.74
2022-11-05T03:25:58.015Z,7.79
2022-11-05T03:26:59.028Z,7.81
2022-11-05T03:27:59.022Z,7.85
2022-11-05T03:28:58.655Z,7.82
2022-11-05T03:29:58.817Z,7.77
2022-11-05T03:30:58.996Z,7.90
2022-11-05T03:31:59.145Z,7.82
2022-11-05T03:33:00.027Z,7.93
2022-11-05T03:34:00.519Z,7.78
2022-11-05T03:35:00.031Z,7.79
2022-11-05T03:35:59.952Z,7.99
2022-11-05T03:37:00.125Z,8.03
2022-11-05T03:38:00.283Z,7.94
2022-11-05T03:39:00.455Z,7.99
2022-11-05T03:40:01.531Z,8.11
2022-11-05T03:41:01.035Z,8.14
2022-11-05T03:42:01.046Z,8.12
2022-11-05T03:43:01.184Z,8.21
2022-11-05T03:44:01.330Z,8.29
2022-11-05T03:45:01.468Z,8.22
2022-11-05T03:46:01.649Z,8.25
2022-11-05T03:47:01.794Z,8.26
2022-11-05T03:48:01.938Z,8.25
2022-11-05T03:49:02.210Z,8.21
2022-11-05T03:50:02.307Z,8.33
2022-11-05T03:51:02.483Z,8.29
2022-11-05T03:52:02.647Z,8.33
2022-11-05T03:53:03.528Z,8.35
2022-11-05T03:54:03.047Z,8.33
2022-11-05T03:55:04.026Z,8.36
2022-11-05T03:56:03.538Z,8.29
2022-11-05T03:57:03.559Z,8.28
2022-11-05T03:58:03.804Z,8.36
2022-11-05T03:59:03.955Z,8.29
2022-11-05T04:00:04.082Z,8.35
2022-11-05T04:01:04.221Z,8.28
2022-11-05T04:02:04.450Z,8.33
2022-11-05T04:03:04.661Z,8.22
2022-11-05T04:04:05.527Z,8.18
2022-11-05T04:05:04.897Z,8.28
2022-11-05T04:06:06.030Z,8.22
2022-11-05T04:07:05.283Z,8.25
2022-11-05T04:08:09.967Z,8.22
2022-11-05T04:09:08.528Z,8.26
2022-11-05T04:10:05.749Z,8.17
2022-11-05T04:11:06.529Z,8.14
2022-11-05T04:12:06.546Z,8.26
2022-11-05T04:13:06.176Z,8.21
2022-11-05T04:14:07.039Z,8.20
2022-11-05T04:15:06.534Z,8.25
2022-11-05T04:16:06.710Z,8.14
2022-11-05T04:17:06.877Z,8.14
2022-11-05T04:18:07.530Z,8.15
2022-11-05T04:19:07.163Z,8.08
2022-11-05T04:20:07.547Z,8.11
2022-11-05T04:21:07.453Z,8.12
2022-11-05T04:22:07.636Z,8.15
2022-11-05T04:23:08.861Z,8.03
2022-11-05T04:24:07.933Z,8.10
2022-11-05T04:25:08.118Z,8.14
2022-11-05T04:26:08.253Z,7.96
2022-11-05T04:27:09.035Z,7.93
2022-11-05T04:28:08.549Z,7.93
2022-11-05T04:29:08.711Z,7.92
2022-11-05T04:30:08.877Z,7.90
2022-11-05T04:31:09.536Z,7.94
2022-11-05T04:32:09.205Z,7.92
2022-11-05T04:33:10.487Z,7.94
2022-11-05T04:34:09.504Z,7.93
2022-11-05T04:35:09.688Z,7.94
2022-11-05T04:36:09.863Z,7.94
2022-11-05T04:37:10.001Z,7.94
2022-11-05T04:38:10.150Z,7.90
2022-11-05T04:39:10.329Z,7.92
2022-11-05T04:40:10.490Z,7.82
2022-11-05T04:41:10.650Z,7.81
2022-11-05T04:42:10.804Z,7.82
2022-11-05T04:43:15.030Z,7.77
2022-11-05T04:44:12.168Z,7.84
2022-11-05T04:45:11.547Z,7.85
2022-11-05T04:46:11.474Z,7.81
2022-11-05T04:47:11.649Z,7.75
2022-11-05T04:48:12.539Z,7.81
2022-11-05T04:49:12.051Z,7.71
2022-11-05T04:50:12.204Z,7.60
2022-11-05T04:51:13.038Z,7.58
2022-11-05T04:52:13.046Z,7.44
2022-11-05T04:53:13.213Z,7.42
2022-11-05T04:54:13.036Z,7.45
2022-11-05T04:55:13.211Z,7.42
2022-11-05T04:56:13.362Z,7.42
2022-11-05T04:57:14.042Z,7.40
2022-11-05T04:58:13.712Z,7.26
2022-11-05T04:59:14.059Z,7.29
2022-11-05T05:00:14.554Z,7.26
2022-11-05T05:01:14.457Z,7.32
2022-11-05T05:02:15.118Z,7.35
2022-11-05T05:03:15.539Z,7.34
2022-11-05T05:04:14.897Z,7.27
2022-11-05T05:05:15.149Z,7.32
2022-11-05T05:06:16.042Z,7.23
2022-11-05T05:07:15.540Z,7.23
2022-11-05T05:08:15.700Z,7.08
2022-11-05T05:09:15.849Z,7.13
2022-11-05T05:10:16.064Z,7.15
2022-11-05T05:11:16.223Z,7.07
2022-11-05T05:12:17.041Z,7.13
2022-11-05T05:13:16.558Z,7.13
2022-11-05T05:14:16.728Z,7.08
2022-11-05T05:15:16.910Z,7.07
2022-11-05T05:16:17.107Z,7.12
2022-11-05T05:17:18.124Z,7.16
2022-11-05T05:18:17.489Z,7.13
2022-11-05T05:19:17.647Z,7.13
2022-11-05T05:20:18.058Z,7.09
2022-11-05T05:21:17.956Z,7.04
2022-11-05T05:22:18.094Z,7.09
2022-11-05T05:23:18.227Z,7.07
2022-11-05T05:24:18.376Z,7.15
2022-11-05T05:25:18.532Z,7.08
2022-11-05T05:26:18.661Z,7.15
2022-11-05T05:27:18.889Z,7.13
2022-11-05T05:28:19.551Z,6.94
2022-11-05T05:29:19.169Z,6.90
2022-11-05T05:30:19.560Z,6.99
2022-11-05T05:31:19.456Z,6.76
2022-11-05T05:32:19.598Z,6.84
2022-11-05T05:33:19.754Z,6.77
2022-11-05T05:34:19.882Z,6.86
2022-11-05T05:35:20.024Z,6.95
2022-11-05T05:36:20.573Z,6.87
2022-11-05T05:37:21.053Z,6.91
2022-11-05T05:38:20.450Z,6.95
2022-11-05T05:39:20.583Z,6.94
2022-11-05T05:40:21.550Z,6.97
2022-11-05T05:41:20.880Z,6.79
2022-11-05T05:42:21.101Z,6.77
2022-11-05T05:43:21.559Z,6.90
2022-11-05T05:44:21.542Z,6.86
2022-11-05T05:45:21.784Z,6.98
2022-11-05T05:46:22.552Z,6.89
2022-11-05T05:47:22.153Z,6.89
2022-11-05T05:48:22.391Z,6.91
2022-11-05T05:49:23.549Z,6.89
2022-11-05T05:50:22.765Z,6.98
2022-11-05T05:51:22.886Z,6.87
2022-11-05T05:52:23.024Z,6.79
2022-11-05T05:53:23.151Z,6.80
2022-11-05T05:54:27.624Z,6.89
2022-11-05T05:55:24.527Z,6.76
2022-11-05T05:56:23.625Z,6.76
2022-11-05T05:57:23.760Z,6.94
2022-11-05T05:58:23.898Z,6.79
2022-11-05T05:59:24.045Z,6.98
2022-11-05T06:00:24.194Z,6.95
2022-11-05T06:01:24.420Z,6.80
2022-11-05T06:02:24.734Z,6.97
2022-11-05T06:03:25.561Z,6.90
2022-11-05T06:04:24.937Z,6.94
2022-11-05T06:05:25.094Z,6.95
2022-11-05T06:06:25.250Z,6.95
2022-11-05T06:07:26.059Z,6.99
2022-11-05T06:08:25.538Z,6.90
2022-11-05T06:09:26.556Z,6.89
2022-11-05T06:10:25.851Z,6.98
2022-11-05T06:11:26.038Z,6.89
2022-11-05T06:12:26.204Z,6.83
2022-11-05T06:13:26.334Z,6.98
2022-11-05T06:14:27.555Z,6.97
2022-11-05T06:15:29.433Z,6.91
2022-11-05T06:16:28.566Z,6.84
2022-11-05T06:17:27.150Z,6.97
2022-11-05T06:18:27.377Z,6.89
2022-11-05T06:19:27.567Z,6.95
2022-11-05T06:20:27.692Z,6.81
2022-11-05T06:21:28.933Z,6.95
2022-11-05T06:22:28.142Z,6.87
2022-11-05T06:23:28.281Z,6.89
2022-11-05T06:24:28.418Z,6.86
2022-11-05T06:25:28.542Z,6.89
2022-11-05T06:26:28.659Z,6.90
2022-11-05T06:27:29.070Z,7.01
2022-11-05T06:28:28.910Z,6.97
2022-11-05T06:29:29.028Z,6.84
2022-11-05T06:30:30.043Z,6.97
2022-11-05T06:31:31.061Z,6.94
2022-11-05T06:32:29.547Z,6.86
2022-11-05T06:33:29.676Z,6.97
2022-11-05T06:34:29.822Z,6.83
2022-11-05T06:35:29.986Z,6.84
2022-11-05T06:36:30.138Z,6.91
2022-11-05T06:37:30.301Z,6.86
2022-11-05T06:38:30.552Z,6.91
2022-11-05T06:39:30.590Z,6.91
2022-11-05T06:40:30.725Z,6.95
2022-11-05T06:41:30.882Z,6.99
2022-11-05T06:42:31.030Z,6.97
2022-11-05T06:43:31.184Z,6.87
2022-11-05T06:44:31.329Z,6.91
2022-11-05T06:45:31.473Z,6.94
2022-11-05T06:46:31.636Z,7.07
2022-11-05T06:47:31.811Z,6.97
2022-11-05T06:48:31.975Z,6.98
2022-11-05T06:49:32.133Z,6.94
2022-11-05T06:50:32.303Z,7.12
2022-11-05T06:51:32.441Z,6.99
2022-11-05T06:52:37.016Z,7.04
2022-11-05T06:53:34.562Z,7.01
2022-11-05T06:54:32.911Z,7.01
2022-11-05T06:55:33.044Z,7.04
2022-11-05T06:56:33.179Z,7.07
2022-11-05T06:57:34.344Z,7.15
2022-11-05T06:58:33.452Z,7.08
2022-11-05T06:59:33.598Z,7.15
2022-11-05T07:00:33.816Z,7.08
2022-11-05T07:01:33.980Z,7.09
2022-11-05T07:02:34.118Z,7.17
2022-11-05T07:03:35.064Z,7.17
2022-11-05T07:04:34.435Z,7.16
2022-11-05T07:05:34.583Z,7.19
2022-11-05T07:06:37.132Z,7.17
2022-11-05T07:07:35.910Z,7.15
2022-11-05T07:08:35.586Z,7.15
2022-11-05T07:09:35.207Z,7.31
2022-11-05T07:10:35.333Z,7.23
2022-11-05T07:11:35.499Z,7.22
2022-11-05T07:12:36.640Z,7.22
2022-11-05T07:13:35.749Z,7.17
2022-11-05T07:14:35.875Z,7.19
2022-11-05T07:15:36.014Z,7.24
2022-11-05T07:16:36.192Z,7.17
2022-11-05T07:17:36.329Z,7.32
2022-11-05T07:18:36.460Z,7.27
2022-11-05T07:19:36.612Z,7.35
2022-11-05T07:20:36.774Z,7.41
2022-11-05T07:21:36.900Z,7.52
2022-11-05T07:22:37.038Z,7.44
2022-11-05T07:23:38.187Z,7.67
2022-11-05T07:24:37.428Z,7.56
2022-11-05T07:25:37.587Z,7.55
2022-11-05T07:26:37.731Z,7.63
2022-11-05T07:27:37.866Z,7.75
2022-11-05T07:28:38.008Z,7.66
2022-11-05T07:29:38.128Z,7.69
2022-11-05T07:30:38.300Z,7.79
2022-11-05T07:31:38.456Z,7.82
2022-11-05T07:32:39.084Z,7.89
2022-11-05T07:33:39.571Z,7.96
2022-11-05T07:34:39.927Z,7.94
2022-11-05T07:35:39.120Z,7.99
2022-11-05T07:36:39.584Z,8.00
2022-11-05T07:37:39.590Z,8.07
2022-11-05T07:38:39.696Z,8.03
2022-11-05T07:39:39.819Z,8.11
2022-11-05T07:40:40.062Z,8.08
2022-11-05T07:41:40.585Z,8.08
2022-11-05T07:42:40.419Z,8.08
2022-11-05T07:43:41.573Z,8.11
2022-11-05T07:44:41.576Z,8.10
2022-11-05T07:45:41.034Z,8.11
2022-11-05T07:46:41.281Z,8.15
2022-11-05T07:47:41.419Z,8.08
2022-11-05T07:48:41.520Z,8.04
2022-11-05T07:49:42.577Z,8.12
2022-11-05T07:50:41.942Z,8.08
2022-11-05T07:51:42.089Z,8.12
2022-11-05T07:52:42.303Z,8.14
2022-11-05T07:53:45.251Z,8.14
2022-11-05T07:54:43.655Z,8.11
2022-11-05T07:55:43.578Z,8.22
2022-11-05T07:56:43.576Z,8.20
2022-11-05T07:57:43.085Z,8.28
2022-11-05T07:58:43.240Z,8.22
2022-11-05T07:59:44.096Z,8.15
2022-11-05T08:00:43.768Z,8.18
2022-11-05T08:01:44.767Z,8.25
2022-11-05T08:02:44.848Z,8.25
2022-11-05T08:03:45.173Z,8.17
2022-11-05T08:04:44.249Z,8.29
2022-11-05T08:05:44.447Z,8.44
2022-11-05T08:06:44.639Z,8.50
2022-11-05T08:07:44.811Z,8.50
2022-11-05T08:08:45.582Z,8.55
2022-11-05T08:09:45.096Z,8.51
2022-11-05T08:10:45.278Z,8.48
2022-11-05T08:11:45.443Z,8.55
2022-11-05T08:12:45.604Z,8.47
2022-11-05T08:13:45.754Z,8.50
2022-11-05T08:14:45.896Z,8.50
2022-11-05T08:15:46.084Z,8.62
2022-11-05T08:16:46.241Z,8.81
2022-11-05T08:17:46.386Z,8.88
2022-11-05T08:18:47.088Z,9.09
2022-11-05T08:19:46.698Z,9.31
2022-11-05T08:20:46.853Z,9.89
2022-11-05T08:21:47.013Z,10.55
2022-11-05T08:22:47.161Z,10.94
2022-11-05T08:23:47.597Z,11.16
2022-11-05T08:24:47.467Z,11.47
2022-11-05T08:25:47.701Z,11.78
2022-11-05T08:26:47.827Z,12.06
2022-11-05T08:27:47.946Z,12.05
2022-11-05T08:28:48.196Z,12.20
2022-11-05T08:29:48.595Z,12.38
2022-11-05T08:30:48.463Z,12.24
2022-11-05T08:31:49.587Z,12.56
2022-11-05T08:32:48.929Z,12.84
2022-11-05T08:33:50.088Z,12.85
2022-11-05T08:34:49.328Z,13.11
2022-11-05T08:35:49.445Z,13.03
2022-11-05T08:36:49.565Z,13.27
2022-11-05T08:37:49.693Z,13.12
2022-11-05T08:38:49.821Z,13.37
2022-11-05T08:39:50.592Z,13.51
2022-11-05T08:40:50.091Z,13.15
2022-11-05T08:41:50.599Z,13.17
2022-11-05T08:42:50.355Z,12.99
2022-11-05T08:43:50.497Z,12.97
2022-11-05T08:44:51.590Z,13.02
2022-11-05T08:45:51.106Z,12.63
2022-11-05T08:46:50.970Z,11.87
2022-11-05T08:47:51.207Z,12.39
2022-11-05T08:48:51.457Z,12.52
2022-11-05T08:49:51.586Z,12.66
2022-11-05T08:50:51.732Z,12.79
2022-11-05T08:51:51.876Z,12.71
2022-11-05T08:52:52.013Z,12.27
2022-11-05T08:53:52.163Z,12.26
2022-11-05T08:54:52.299Z,12.52
2022-11-05T08:55:52.449Z,12.77
2022-11-05T08:56:52.606Z,13.00
2022-11-05T08:57:52.744Z,13.03
2022-11-05T08:58:52.899Z,12.59
2022-11-05T08:59:53.040Z,11.78
2022-11-05T09:00:53.226Z,11.14
2022-11-05T09:01:53.492Z,10.60
2022-11-05T09:02:53.542Z,10.33
2022-11-05T09:03:53.698Z,10.04
2022-11-05T09:04:54.600Z,9.91
2022-11-05T09:05:53.965Z,9.75
2022-11-05T09:06:54.095Z,9.63
2022-11-05T09:08:00.469Z,10.19
2022-11-05T09:08:56.383Z,10.60
2022-11-05T09:09:54.600Z,10.99
2022-11-05T09:10:55.606Z,10.96
2022-11-05T09:12:11.716Z,11.02
2022-11-05T09:12:57.217Z,11.57
2022-11-05T09:13:55.307Z,11.34
2022-11-05T09:14:55.441Z,10.98
2022-11-05T09:15:55.623Z,10.65
2022-11-05T09:16:56.601Z,10.37
2022-11-05T09:17:55.986Z,10.21
2022-11-05T09:18:56.114Z,10.34
2022-11-05T09:19:56.258Z,10.47
2022-11-05T09:20:56.618Z,10.36
2022-11-05T09:21:56.633Z,10.03
2022-11-05T09:22:56.872Z,10.06
2022-11-05T09:23:57.023Z,9.93
2022-11-05T09:24:57.141Z,9.70
2022-11-05T09:25:57.314Z,9.61
2022-11-05T09:26:57.443Z,9.68
2022-11-05T09:27:57.578Z,9.82
2022-11-05T09:28:57.703Z,9.88
2022-11-05T09:29:57.875Z,9.79
2022-11-05T09:30:58.115Z,9.73
2022-11-05T09:31:59.104Z,9.70
2022-11-05T09:32:58.339Z,9.70
2022-11-05T09:33:59.108Z,9.71
2022-11-05T09:34:59.625Z,9.68
2022-11-05T09:35:59.116Z,10.01
2022-11-05T09:36:59.003Z,9.96
2022-11-05T09:38:01.292Z,10.15
2022-11-05T09:39:00.378Z,10.60
2022-11-05T09:39:59.497Z,11.35
2022-11-05T09:40:59.643Z,11.89
2022-11-05T09:42:00.618Z,12.31
2022-11-05T09:43:00.614Z,12.31
2022-11-05T09:44:00.625Z,12.45
2022-11-05T09:45:00.627Z,12.81
2022-11-05T09:46:00.383Z,13.21
2022-11-05T09:47:00.528Z,13.63
2022-11-05T09:48:00.687Z,14.01
2022-11-05T09:49:00.851Z,14.21
2022-11-05T09:50:01.040Z,14.46
2022-11-05T09:51:01.210Z,14.75
2022-11-05T09:52:02.129Z,14.88
2022-11-05T09:53:01.530Z,15.08
2022-11-05T09:54:01.741Z,15.03
2022-11-05T09:55:02.615Z,15.01
2022-11-05T09:56:02.114Z,14.64
2022-11-05T09:57:02.290Z,14.75
2022-11-05T09:58:03.457Z,14.98
2022-11-05T09:59:02.612Z,15.09
2022-11-05T10:00:03.615Z,15.19
2022-11-05T10:01:03.690Z,15.42
2022-11-05T10:02:03.284Z,15.61
2022-11-05T10:03:03.319Z,15.66
2022-11-05T10:04:03.473Z,15.74
2022-11-05T10:05:08.229Z,15.51
2022-11-05T10:06:05.838Z,15.21
2022-11-05T10:07:04.063Z,14.98
2022-11-05T10:08:05.114Z,14.83
2022-11-05T10:09:04.629Z,14.69
2022-11-05T10:10:05.170Z,14.60
2022-11-05T10:11:05.619Z,14.62
2022-11-05T10:12:05.623Z,14.68
2022-11-05T10:13:04.987Z,14.93
2022-11-05T10:14:05.665Z,14.87
2022-11-05T10:15:06.122Z,14.50
2022-11-05T10:16:06.120Z,14.43
2022-11-05T10:17:06.142Z,14.56
2022-11-05T10:18:05.909Z,14.75
2022-11-05T10:19:06.073Z,14.81
2022-11-05T10:20:06.229Z,14.86
2022-11-05T10:21:07.121Z,14.78
2022-11-05T10:22:07.358Z,14.38
2022-11-05T10:23:08.868Z,13.62
2022-11-05T10:24:06.874Z,13.62
2022-11-05T10:25:07.631Z,13.61
2022-11-05T10:26:08.124Z,13.25
2022-11-05T10:27:07.403Z,12.87
2022-11-05T10:28:07.601Z,12.85
2022-11-05T10:29:07.777Z,12.67
2022-11-05T10:30:07.921Z,12.79
2022-11-05T10:31:08.086Z,12.96
2022-11-05T10:32:08.253Z,13.09
2022-11-05T10:33:08.663Z,12.97
2022-11-05T10:34:08.593Z,12.74
2022-11-05T10:35:08.764Z,12.77
2022-11-05T10:36:08.933Z,12.59
2022-11-05T10:37:09.115Z,12.81
2022-11-05T10:38:09.300Z,12.96
2022-11-05T10:39:10.131Z,12.79
2022-11-05T10:40:09.737Z,12.16
2022-11-05T10:41:10.145Z,11.74
2022-11-05T10:42:10.142Z,11.54
2022-11-05T10:43:10.532Z,11.20
2022-11-05T10:44:16.076Z,10.89
2022-11-05T10:45:12.624Z,10.63
2022-11-05T10:46:10.782Z,10.52
2022-11-05T10:47:10.977Z,10.52
2022-11-05T10:48:11.156Z,10.40
2022-11-05T10:49:11.337Z,10.21
2022-11-05T10:50:12.142Z,10.18
2022-11-05T10:51:11.681Z,10.15
2022-11-05T10:52:11.875Z,9.96
2022-11-05T10:53:12.414Z,10.25
2022-11-05T10:54:13.136Z,10.68
2022-11-05T10:55:12.400Z,10.96
2022-11-05T10:56:13.136Z,11.35
2022-11-05T10:57:12.674Z,11.56
2022-11-05T10:58:12.860Z,11.78
2022-11-05T10:59:13.017Z,11.85
2022-11-05T11:00:13.186Z,12.01
2022-11-05T11:01:14.201Z,12.13
2022-11-05T11:02:13.538Z,12.01
2022-11-05T11:03:13.984Z,12.23
2022-11-05T11:04:13.808Z,12.51
2022-11-05T11:05:13.941Z,12.69
2022-11-05T11:06:14.082Z,12.63
2022-11-05T11:07:14.236Z,12.71
2022-11-05T11:08:14.395Z,12.99
2022-11-05T11:09:14.555Z,13.21
2022-11-05T11:10:15.642Z,13.29
2022-11-05T11:11:14.899Z,13.41
2022-11-05T11:12:15.185Z,13.55
2022-11-05T11:13:15.234Z,13.41
2022-11-05T11:14:15.389Z,13.44
2022-11-05T11:15:15.652Z,13.54
2022-11-05T11:16:15.663Z,13.49
2022-11-05T11:17:15.823Z,13.30
2022-11-05T11:18:15.979Z,13.20
2022-11-05T11:19:16.648Z,13.12
2022-11-05T11:20:16.660Z,13.11
2022-11-05T11:21:16.414Z,13.09
2022-11-05T11:22:16.557Z,13.30
2022-11-05T11:23:17.649Z,13.36
2022-11-05T11:24:17.654Z,13.49
2022-11-05T11:25:17.064Z,13.32
2022-11-05T11:26:17.250Z,13.41
2022-11-05T11:27:17.661Z,13.46
2022-11-05T11:28:17.562Z,13.62
2022-11-05T11:29:18.648Z,13.74
2022-11-05T11:30:17.934Z,13.95
2022-11-05T11:31:18.162Z,13.99
2022-11-05T11:32:19.157Z,13.84
2022-11-05T11:33:18.557Z,13.58
2022-11-05T11:34:18.785Z,13.63
2022-11-05T11:35:18.988Z,13.37
2022-11-05T11:36:20.154Z,13.24
2022-11-05T11:37:20.156Z,13.17
2022-11-05T11:38:19.558Z,13.06
2022-11-05T11:39:19.776Z,13.06
2022-11-05T11:40:20.159Z,13.15
2022-11-05T11:41:20.068Z,13.25
2022-11-05T11:42:20.229Z,13.46
2022-11-05T11:43:21.150Z,13.47
2022-11-05T11:44:21.153Z,13.12
2022-11-05T11:45:20.665Z,13.11
2022-11-05T11:46:20.795Z,13.04
2022-11-05T11:47:20.938Z,13.03
2022-11-05T11:48:21.131Z,12.92
2022-11-05T11:49:21.280Z,12.92
2022-11-05T11:50:21.431Z,12.77
2022-11-05T11:51:21.623Z,12.57
2022-11-05T11:52:21.764Z,12.21
2022-11-05T11:53:22.652Z,11.96
2022-11-05T11:54:24.793Z,11.94
2022-11-05T11:55:23.149Z,11.78
2022-11-05T11:56:22.412Z,11.77
2022-11-05T11:57:22.670Z,11.64
2022-11-05T11:58:22.699Z,11.54
2022-11-05T11:59:40.475Z,11.50
2022-11-05T12:00:25.026Z,11.43
2022-11-05T12:01:23.288Z,11.36
2022-11-05T12:02:24.252Z,11.36
2022-11-05T12:03:23.714Z,11.34
2022-11-05T12:04:23.805Z,11.46
2022-11-05T12:05:23.971Z,11.56
2022-11-05T12:06:24.114Z,11.46
2022-11-05T12:07:24.297Z,11.50
2022-11-05T12:08:24.441Z,11.49
2022-11-05T12:09:24.591Z,11.39
2022-11-05T12:10:28.448Z,11.34
2022-11-05T12:11:24.960Z,11.50
2022-11-05T12:12:25.138Z,11.53
2022-11-05T12:13:25.312Z,11.34
2022-11-05T12:14:25.475Z,11.50
2022-11-05T12:15:26.169Z,11.41
2022-11-05T12:16:25.797Z,11.43
2022-11-05T12:17:26.015Z,11.49
2022-11-05T12:18:26.205Z,11.34
2022-11-05T12:19:26.365Z,11.24
2022-11-05T12:20:27.164Z,11.20
2022-11-05T12:21:48.047Z,11.25
2022-11-05T12:22:28.849Z,11.36
2022-11-05T12:23:26.972Z,11.41
2022-11-05T12:24:27.153Z,11.64
2022-11-05T12:25:27.329Z,11.78
2022-11-05T12:26:27.474Z,12.01
2022-11-05T12:27:27.672Z,11.96
2022-11-05T12:28:27.846Z,11.70
2022-11-05T12:29:34.457Z,11.61
2022-11-05T12:30:30.666Z,11.62
2022-11-05T12:31:28.388Z,11.53
2022-11-05T12:32:29.393Z,11.52
2022-11-05T12:33:28.685Z,11.43
2022-11-05T12:34:28.836Z,11.53
2022-11-05T12:35:28.985Z,11.47
2022-11-05T12:36:29.164Z,11.21
2022-11-05T12:37:29.371Z,11.21
2022-11-05T12:38:29.683Z,11.36
2022-11-05T12:39:29.700Z,11.49
2022-11-05T12:40:29.874Z,11.43
2022-11-05T12:41:30.694Z,11.35
2022-11-05T12:42:31.172Z,11.56
2022-11-05T12:43:30.447Z,11.52
2022-11-05T12:44:30.629Z,11.64
2022-11-05T12:45:30.759Z,11.77
2022-11-05T12:46:31.913Z,11.80
2022-11-05T12:47:31.669Z,11.78
2022-11-05T12:48:36.844Z,11.75
2022-11-05T12:49:33.429Z,11.68
2022-11-05T12:50:32.177Z,11.67
2022-11-05T12:51:31.844Z,11.57
2022-11-05T12:52:32.009Z,11.67
2022-11-05T12:53:32.164Z,11.59
2022-11-05T12:54:32.294Z,11.67
2022-11-05T12:55:33.180Z,11.87
2022-11-05T12:56:32.653Z,12.05
2022-11-05T12:57:33.674Z,12.26
2022-11-05T12:58:33.098Z,12.51
2022-11-05T12:59:34.172Z,12.51
2022-11-05T13:00:33.441Z,12.42
2022-11-05T13:01:34.301Z,12.09
2022-11-05T13:02:34.710Z,11.99
2022-11-05T13:03:33.969Z,11.97
2022-11-05T13:04:34.123Z,11.87
2022-11-05T13:05:34.256Z,11.78
2022-11-05T13:06:34.407Z,11.57
2022-11-05T13:07:34.575Z,11.52
2022-11-05T13:08:35.681Z,11.52
2022-11-05T13:09:35.701Z,11.46
2022-11-05T13:10:35.673Z,11.39
2022-11-05T13:11:35.289Z,11.32